sensor_id;sensor_type;location;lat;lon;timestamp;pressure;altitude;pressure_sealevel;temperature;humidity
82476;BME280;72099;43.176;76.872;2023-09-19T00:03:00;89674.03;;;11.52;63.63
82476;BME280;72099;43.176;76.872;2023-09-19T00:06:01;89675.00;;;11.64;63.45
82476;BME280;72099;43.176;76.872;2023-09-19T00:09:03;89668.75;;;11.72;63.55
82476;BME280;72099;43.176;76.872;2023-09-19T00:12:07;89665.06;;;11.76;63.37
82476;BME280;72099;43.176;76.872;2023-09-19T00:15:09;89659.44;;;11.78;63.20
82476;BME280;72099;43.176;76.872;2023-09-19T00:18:11;89666.59;;;11.77;62.29
82476;BME280;72099;43.176;76.872;2023-09-19T00:21:16;89665.91;;;11.80;63.13
82476;BME280;72099;43.176;76.872;2023-09-19T00:24:16;89662.06;;;11.78;62.13
82476;BME280;72099;43.176;76.872;2023-09-19T00:27:18;89670.41;;;11.80;62.17
82476;BME280;72099;43.176;76.872;2023-09-19T00:30:19;89665.16;;;11.80;62.44
82476;BME280;72099;43.176;76.872;2023-09-19T00:33:24;89665.53;;;11.82;62.08
82476;BME280;72099;43.176;76.872;2023-09-19T00:36:25;89659.78;;;11.76;62.15
82476;BME280;72099;43.176;76.872;2023-09-19T00:39:26;89668.81;;;11.75;62.49
82476;BME280;72099;43.176;76.872;2023-09-19T00:42:28;89662.69;;;11.71;62.90
82476;BME280;72099;43.176;76.872;2023-09-19T00:45:29;89667.56;;;11.69;61.52
82476;BME280;72099;43.176;76.872;2023-09-19T00:48:30;89670.53;;;11.68;62.67
82476;BME280;72099;43.176;76.872;2023-09-19T00:51:31;89664.13;;;11.65;62.71
82476;BME280;72099;43.176;76.872;2023-09-19T00:54:32;89669.94;;;11.55;64.19
82476;BME280;72099;43.176;76.872;2023-09-19T00:57:35;89673.22;;;11.48;63.01
82476;BME280;72099;43.176;76.872;2023-09-19T01:00:37;89674.19;;;11.40;63.76
82476;BME280;72099;43.176;76.872;2023-09-19T01:03:38;89685.13;;;11.42;64.09
82476;BME280;72099;43.176;76.872;2023-09-19T01:06:40;89689.66;;;11.42;64.14
82476;BME280;72099;43.176;76.872;2023-09-19T01:09:41;89693.81;;;11.43;65.19
82476;BME280;72099;43.176;76.872;2023-09-19T01:13:08;89707.94;;;11.54;64.36
82476;BME280;72099;43.176;76.872;2023-09-19T01:26:40;89716.50;;;11.70;64.20
82476;BME280;72099;43.176;76.872;2023-09-19T01:29:49;89713.94;;;11.74;64.23
82476;BME280;72099;43.176;76.872;2023-09-19T01:32:53;89718.34;;;11.86;64.41
82476;BME280;72099;43.176;76.872;2023-09-19T01:35:54;89721.78;;;11.90;64.42
82476;BME280;72099;43.176;76.872;2023-09-19T01:38:59;89719.25;;;11.97;64.59
82476;BME280;72099;43.176;76.872;2023-09-19T01:42:10;89714.81;;;12.01;65.06
82476;BME280;72099;43.176;76.872;2023-09-19T01:52:05;89709.38;;;12.13;65.49
82476;BME280;72099;43.176;76.872;2023-09-19T01:55:11;89696.88;;;12.10;65.29
82476;BME280;72099;43.176;76.872;2023-09-19T02:01:27;89699.69;;;12.21;65.79
82476;BME280;72099;43.176;76.872;2023-09-19T02:04:28;89694.66;;;12.35;65.19
82476;BME280;72099;43.176;76.872;2023-09-19T02:07:29;89697.22;;;12.54;64.76
82476;BME280;72099;43.176;76.872;2023-09-19T02:10:32;89685.03;;;12.73;63.76
82476;BME280;72099;43.176;76.872;2023-09-19T02:13:33;89693.19;;;12.90;63.90
82476;BME280;72099;43.176;76.872;2023-09-19T02:16:34;89689.66;;;13.09;63.52
82476;BME280;72099;43.176;76.872;2023-09-19T02:19:35;89694.06;;;13.28;62.85
82476;BME280;72099;43.176;76.872;2023-09-19T02:22:37;89690.16;;;13.48;62.14
82476;BME280;72099;43.176;76.872;2023-09-19T02:25:39;89689.28;;;13.71;61.56
82476;BME280;72099;43.176;76.872;2023-09-19T02:28:41;89684.56;;;13.91;61.11
82476;BME280;72099;43.176;76.872;2023-09-19T02:31:42;89678.28;;;14.06;60.11
82476;BME280;72099;43.176;76.872;2023-09-19T02:34:43;89685.31;;;14.32;59.92
82476;BME280;72099;43.176;76.872;2023-09-19T02:37:45;89683.22;;;14.52;59.21
82476;BME280;72099;43.176;76.872;2023-09-19T02:40:46;89679.16;;;14.65;58.91
82476;BME280;72099;43.176;76.872;2023-09-19T02:43:47;89680.78;;;14.84;58.23
82476;BME280;72099;43.176;76.872;2023-09-19T02:46:48;89685.44;;;15.01;58.15
82476;BME280;72099;43.176;76.872;2023-09-19T02:49:49;89693.09;;;15.13;57.72
82476;BME280;72099;43.176;76.872;2023-09-19T02:52:49;89677.97;;;15.17;57.09
82476;BME280;72099;43.176;76.872;2023-09-19T02:55:50;89690.16;;;15.36;57.02
82476;BME280;72099;43.176;76.872;2023-09-19T02:58:53;89698.16;;;15.43;56.90
82476;BME280;72099;43.176;76.872;2023-09-19T03:01:53;89708.38;;;15.48;56.85
82476;BME280;72099;43.176;76.872;2023-09-19T03:04:54;89714.44;;;15.49;56.92
82476;BME280;72099;43.176;76.872;2023-09-19T03:07:57;89711.41;;;15.47;56.56
82476;BME280;72099;43.176;76.872;2023-09-19T03:11:01;89717.47;;;15.44;56.68
82476;BME280;72099;43.176;76.872;2023-09-19T03:14:02;89717.47;;;15.47;56.70
82476;BME280;72099;43.176;76.872;2023-09-19T03:17:04;89719.78;;;15.52;56.80
82476;BME280;72099;43.176;76.872;2023-09-19T03:20:05;89725.13;;;15.59;56.20
82476;BME280;72099;43.176;76.872;2023-09-19T03:23:09;89728.16;;;15.61;56.41
82476;BME280;72099;43.176;76.872;2023-09-19T03:26:14;89733.88;;;15.67;55.92
82476;BME280;72099;43.176;76.872;2023-09-19T03:29:16;89736.97;;;15.76;55.36
82476;BME280;72099;43.176;76.872;2023-09-19T03:32:17;89732.03;;;15.85;55.07
82476;BME280;72099;43.176;76.872;2023-09-19T03:35:18;89738.13;;;15.89;54.99
82476;BME280;72099;43.176;76.872;2023-09-19T03:38:20;89750.66;;;15.92;55.16
82476;BME280;72099;43.176;76.872;2023-09-19T03:41:22;89741.94;;;15.96;54.38
82476;BME280;72099;43.176;76.872;2023-09-19T03:44:22;89746.50;;;15.99;54.40
82476;BME280;72099;43.176;76.872;2023-09-19T03:47:23;89751.44;;;16.04;54.62
82476;BME280;72099;43.176;76.872;2023-09-19T03:50:24;89752.97;;;16.12;54.11
82476;BME280;72099;43.176;76.872;2023-09-19T03:53:25;89751.88;;;16.20;54.00
82476;BME280;72099;43.176;76.872;2023-09-19T03:56:26;89751.50;;;16.29;53.98
82476;BME280;72099;43.176;76.872;2023-09-19T03:59:27;89750.00;;;16.38;53.56
82476;BME280;72099;43.176;76.872;2023-09-19T04:02:29;89763.66;;;16.47;53.32
82476;BME280;72099;43.176;76.872;2023-09-19T04:05:33;89748.13;;;16.64;52.92
82476;BME280;72099;43.176;76.872;2023-09-19T04:08:34;89746.66;;;16.73;52.79
82476;BME280;72099;43.176;76.872;2023-09-19T04:11:35;89735.66;;;16.82;52.80
82476;BME280;72099;43.176;76.872;2023-09-19T04:14:35;89736.78;;;16.88;52.32
82476;BME280;72099;43.176;76.872;2023-09-19T04:17:36;89731.84;;;16.87;52.19
82476;BME280;72099;43.176;76.872;2023-09-19T04:20:37;89738.69;;;16.91;52.36
82476;BME280;72099;43.176;76.872;2023-09-19T04:23:38;89732.63;;;16.98;52.27
82476;BME280;72099;43.176;76.872;2023-09-19T04:26:38;89731.84;;;17.04;52.13
82476;BME280;72099;43.176;76.872;2023-09-19T04:29:39;89728.41;;;17.18;52.06
82476;BME280;72099;43.176;76.872;2023-09-19T04:32:41;89717.03;;;17.21;51.92
82476;BME280;72099;43.176;76.872;2023-09-19T04:35:42;89720.41;;;17.39;51.66
82476;BME280;72099;43.176;76.872;2023-09-19T04:38:43;89707.06;;;17.54;51.59
82476;BME280;72099;43.176;76.872;2023-09-19T04:41:44;89716.94;;;17.57;51.38
82476;BME280;72099;43.176;76.872;2023-09-19T04:44:46;89719.22;;;17.62;51.40
82476;BME280;72099;43.176;76.872;2023-09-19T04:47:49;89718.81;;;17.67;51.62
82476;BME280;72099;43.176;76.872;2023-09-19T04:50:50;89710.81;;;17.71;51.68
82476;BME280;72099;43.176;76.872;2023-09-19T04:53:51;89713.09;;;17.79;51.14
82476;BME280;72099;43.176;76.872;2023-09-19T04:56:52;89711.16;;;17.87;51.39
82476;BME280;72099;43.176;76.872;2023-09-19T04:59:53;89717.56;;;17.96;51.09
82476;BME280;72099;43.176;76.872;2023-09-19T05:02:55;89722.13;;;18.00;51.13
82476;BME280;72099;43.176;76.872;2023-09-19T05:09:56;89718.22;;;18.18;50.93
82476;BME280;72099;43.176;76.872;2023-09-19T05:12:56;89711.75;;;18.23;50.89
82476;BME280;72099;43.176;76.872;2023-09-19T05:16:00;89711.38;;;18.17;50.69
82476;BME280;72099;43.176;76.872;2023-09-19T05:19:04;89719.78;;;18.16;50.82
82476;BME280;72099;43.176;76.872;2023-09-19T05:22:05;89712.16;;;18.14;51.01
82476;BME280;72099;43.176;76.872;2023-09-19T05:25:08;89717.44;;;18.21;50.76
82476;BME280;72099;43.176;76.872;2023-09-19T05:28:10;89698.41;;;18.26;50.29
82476;BME280;72099;43.176;76.872;2023-09-19T05:31:12;89705.84;;;18.53;50.13
82476;BME280;72099;43.176;76.872;2023-09-19T05:34:13;89707.16;;;18.90;49.61
82476;BME280;72099;43.176;76.872;2023-09-19T05:37:14;89692.19;;;19.03;49.18
82476;BME280;72099;43.176;76.872;2023-09-19T05:40:19;89707.00;;;19.45;48.75
82476;BME280;72099;43.176;76.872;2023-09-19T05:43:20;89701.63;;;20.17;47.58
82476;BME280;72099;43.176;76.872;2023-09-19T05:46:22;89707.81;;;20.95;46.27
82476;BME280;72099;43.176;76.872;2023-09-19T05:49:23;89686.22;;;21.32;45.32
82476;BME280;72099;43.176;76.872;2023-09-19T05:52:25;89694.19;;;21.36;44.83
82476;BME280;72099;43.176;76.872;2023-09-19T05:55:26;89693.81;;;21.34;45.00
82476;BME280;72099;43.176;76.872;2023-09-19T05:58:29;89693.28;;;21.19;45.32
82476;BME280;72099;43.176;76.872;2023-09-19T06:01:29;89710.03;;;21.00;45.12
82476;BME280;72099;43.176;76.872;2023-09-19T06:04:32;89704.66;;;20.76;45.56
82476;BME280;72099;43.176;76.872;2023-09-19T06:07:33;89703.56;;;20.47;45.87
82476;BME280;72099;43.176;76.872;2023-09-19T06:10:37;89699.19;;;20.29;46.41
82476;BME280;72099;43.176;76.872;2023-09-19T06:13:38;89705.75;;;20.25;46.35
82476;BME280;72099;43.176;76.872;2023-09-19T06:16:39;89699.09;;;20.37;46.04
82476;BME280;72099;43.176;76.872;2023-09-19T06:19:41;89703.91;;;20.49;46.08
82476;BME280;72099;43.176;76.872;2023-09-19T06:22:48;89694.75;;;20.50;45.96
82476;BME280;72099;43.176;76.872;2023-09-19T06:25:49;89695.59;;;20.43;45.90
82476;BME280;72099;43.176;76.872;2023-09-19T06:28:50;89696.19;;;20.54;45.84
82476;BME280;72099;43.176;76.872;2023-09-19T06:31:53;89685.75;;;20.64;45.42
82476;BME280;72099;43.176;76.872;2023-09-19T06:34:54;89686.72;;;20.77;45.23
82476;BME280;72099;43.176;76.872;2023-09-19T06:37:56;89689.28;;;20.84;45.16
82476;BME280;72099;43.176;76.872;2023-09-19T06:40:58;89673.69;;;20.79;45.38
82476;BME280;72099;43.176;76.872;2023-09-19T06:43:59;89679.69;;;20.86;45.18
82476;BME280;72099;43.176;76.872;2023-09-19T06:47:00;89673.44;;;20.97;44.81
82476;BME280;72099;43.176;76.872;2023-09-19T06:50:01;89669.47;;;21.05;44.75
82476;BME280;72099;43.176;76.872;2023-09-19T06:53:03;89678.06;;;21.16;44.28
82476;BME280;72099;43.176;76.872;2023-09-19T06:56:04;89675.16;;;21.30;44.06
82476;BME280;72099;43.176;76.872;2023-09-19T06:59:06;89673.00;;;21.45;43.16
82476;BME280;72099;43.176;76.872;2023-09-19T07:02:07;89672.63;;;21.66;42.61
82476;BME280;72099;43.176;76.872;2023-09-19T07:05:10;89665.13;;;21.77;41.99
82476;BME280;72099;43.176;76.872;2023-09-19T07:08:11;89661.13;;;21.86;41.86
82476;BME280;72099;43.176;76.872;2023-09-19T07:11:12;89662.53;;;22.14;41.49
82476;BME280;72099;43.176;76.872;2023-09-19T07:14:14;89652.84;;;22.36;41.31
82476;BME280;72099;43.176;76.872;2023-09-19T07:17:15;89650.72;;;22.63;40.66
82476;BME280;72099;43.176;76.872;2023-09-19T07:20:19;89651.94;;;23.11;40.07
82476;BME280;72099;43.176;76.872;2023-09-19T07:23:21;89644.75;;;23.37;39.68
82476;BME280;72099;43.176;76.872;2023-09-19T07:26:23;89650.00;;;23.57;39.12
82476;BME280;72099;43.176;76.872;2023-09-19T07:29:24;89641.13;;;23.89;38.70
82476;BME280;72099;43.176;76.872;2023-09-19T07:32:26;89637.41;;;24.12;37.63
82476;BME280;72099;43.176;76.872;2023-09-19T07:35:27;89638.31;;;24.60;37.32
82476;BME280;72099;43.176;76.872;2023-09-19T07:38:28;89637.53;;;25.23;35.91
82476;BME280;72099;43.176;76.872;2023-09-19T07:41:29;89631.56;;;25.75;35.13
82476;BME280;72099;43.176;76.872;2023-09-19T07:44:31;89625.44;;;26.19;34.37
82476;BME280;72099;43.176;76.872;2023-09-19T07:47:32;89634.22;;;26.32;33.56
82476;BME280;72099;43.176;76.872;2023-09-19T07:50:34;89635.66;;;26.02;33.71
82476;BME280;72099;43.176;76.872;2023-09-19T07:53:37;89632.16;;;25.70;33.77
82476;BME280;72099;43.176;76.872;2023-09-19T07:56:39;89629.25;;;25.52;33.91
82476;BME280;72099;43.176;76.872;2023-09-19T07:59:39;89624.69;;;25.40;34.05
82476;BME280;72099;43.176;76.872;2023-09-19T08:02:43;89630.59;;;25.47;33.72
82476;BME280;72099;43.176;76.872;2023-09-19T08:05:44;89630.44;;;25.51;33.10
82476;BME280;72099;43.176;76.872;2023-09-19T08:08:45;89630.72;;;25.44;33.23
82476;BME280;72099;43.176;76.872;2023-09-19T08:11:47;89637.22;;;25.21;33.31
82476;BME280;72099;43.176;76.872;2023-09-19T08:14:48;89626.72;;;25.14;33.33
82476;BME280;72099;43.176;76.872;2023-09-19T08:17:49;89598.91;;;25.17;33.12
82476;BME280;72099;43.176;76.872;2023-09-19T08:20:51;89625.59;;;25.24;33.26
82476;BME280;72099;43.176;76.872;2023-09-19T08:23:52;89625.84;;;25.04;33.79
82476;BME280;72099;43.176;76.872;2023-09-19T08:26:57;89618.72;;;24.97;33.48
82476;BME280;72099;43.176;76.872;2023-09-19T08:29:58;89624.53;;;24.96;33.57
82476;BME280;72099;43.176;76.872;2023-09-19T08:33:00;89625.63;;;24.73;33.96
82476;BME280;72099;43.176;76.872;2023-09-19T08:36:04;89628.22;;;24.89;33.46
82476;BME280;72099;43.176;76.872;2023-09-19T08:39:05;89623.75;;;25.21;32.69
82476;BME280;72099;43.176;76.872;2023-09-19T08:42:06;89619.09;;;25.34;32.68
82476;BME280;72099;43.176;76.872;2023-09-19T08:45:08;89620.97;;;25.59;32.48
82476;BME280;72099;43.176;76.872;2023-09-19T08:48:26;89615.47;;;25.84;32.05
82476;BME280;72099;43.176;76.872;2023-09-19T08:51:45;89615.50;;;26.06;31.95
82476;BME280;72099;43.176;76.872;2023-09-19T08:54:48;89605.91;;;26.05;31.75
82476;BME280;72099;43.176;76.872;2023-09-19T08:57:59;89615.94;;;25.83;32.04
82476;BME280;72099;43.176;76.872;2023-09-19T09:01:01;89617.06;;;25.60;32.50
82476;BME280;72099;43.176;76.872;2023-09-19T09:04:02;89611.59;;;25.51;32.43
82476;BME280;72099;43.176;76.872;2023-09-19T09:07:04;89618.09;;;25.53;32.20
82476;BME280;72099;43.176;76.872;2023-09-19T09:10:05;89610.22;;;25.46;32.25
82476;BME280;72099;43.176;76.872;2023-09-19T09:13:07;89611.59;;;25.29;32.36
82476;BME280;72099;43.176;76.872;2023-09-19T09:16:09;89619.59;;;25.07;33.12
82476;BME280;72099;43.176;76.872;2023-09-19T09:19:10;89616.81;;;24.73;33.64
82476;BME280;72099;43.176;76.872;2023-09-19T09:22:11;89619.41;;;24.51;33.71
82476;BME280;72099;43.176;76.872;2023-09-19T09:25:12;89617.38;;;24.42;33.92
82476;BME280;72099;43.176;76.872;2023-09-19T09:28:19;89620.81;;;24.42;33.61
82476;BME280;72099;43.176;76.872;2023-09-19T09:31:24;89609.19;;;24.46;34.20
82476;BME280;72099;43.176;76.872;2023-09-19T09:34:33;89606.81;;;24.35;34.07
82476;BME280;72099;43.176;76.872;2023-09-19T09:37:34;89616.38;;;24.23;34.75
82476;BME280;72099;43.176;76.872;2023-09-19T09:40:48;89608.47;;;24.03;34.49
82476;BME280;72099;43.176;76.872;2023-09-19T09:43:53;89611.59;;;24.02;34.74
82476;BME280;72099;43.176;76.872;2023-09-19T09:46:54;89608.81;;;24.05;34.53
82476;BME280;72099;43.176;76.872;2023-09-19T09:50:30;89606.13;;;24.05;34.70
82476;BME280;72099;43.176;76.872;2023-09-19T09:54:13;89608.81;;;24.05;34.42
82476;BME280;72099;43.176;76.872;2023-09-19T09:57:23;89610.84;;;24.01;35.12
82476;BME280;72099;43.176;76.872;2023-09-19T10:00:26;89613.09;;;24.03;34.89
82476;BME280;72099;43.176;76.872;2023-09-19T10:03:34;89600.97;;;24.11;35.47
82476;BME280;72099;43.176;76.872;2023-09-19T10:06:40;89601.53;;;24.31;34.88
82476;BME280;72099;43.176;76.872;2023-09-19T10:09:47;89586.59;;;24.43;34.68
82476;BME280;72099;43.176;76.872;2023-09-19T10:12:49;89598.88;;;24.44;34.65
82476;BME280;72099;43.176;76.872;2023-09-19T10:15:51;89594.34;;;24.41;34.51
82476;BME280;72099;43.176;76.872;2023-09-19T10:18:55;89595.31;;;24.34;34.53
82476;BME280;72099;43.176;76.872;2023-09-19T10:21:58;89596.19;;;24.44;34.27
82476;BME280;72099;43.176;76.872;2023-09-19T10:25:02;89589.72;;;24.54;33.75
82476;BME280;72099;43.176;76.872;2023-09-19T10:28:12;89580.34;;;24.59;33.86
82476;BME280;72099;43.176;76.872;2023-09-19T10:31:18;89587.16;;;24.63;34.16
82476;BME280;72099;43.176;76.872;2023-09-19T10:34:22;89597.34;;;24.68;34.20
82476;BME280;72099;43.176;76.872;2023-09-19T10:37:26;89593.03;;;24.71;34.27
82476;BME280;72099;43.176;76.872;2023-09-19T10:40:28;89589.28;;;24.68;33.78
82476;BME280;72099;43.176;76.872;2023-09-19T10:43:32;89591.00;;;24.75;33.29
82476;BME280;72099;43.176;76.872;2023-09-19T10:46:34;89577.56;;;24.62;33.81
82476;BME280;72099;43.176;76.872;2023-09-19T10:49:34;89585.22;;;24.51;34.39
82476;BME280;72099;43.176;76.872;2023-09-19T10:52:39;89568.00;;;24.23;34.43
82476;BME280;72099;43.176;76.872;2023-09-19T10:55:51;89581.13;;;24.34;34.54
82476;BME280;72099;43.176;76.872;2023-09-19T10:59:16;89586.41;;;24.50;34.51
82476;BME280;72099;43.176;76.872;2023-09-19T11:02:18;89579.59;;;24.58;34.57
82476;BME280;72099;43.176;76.872;2023-09-19T11:05:20;89577.03;;;24.55;34.02
82476;BME280;72099;43.176;76.872;2023-09-19T11:08:20;89577.47;;;24.40;34.34
82476;BME280;72099;43.176;76.872;2023-09-19T11:11:55;89582.38;;;24.04;34.75
82476;BME280;72099;43.176;76.872;2023-09-19T11:15:00;89583.00;;;23.95;36.20
82476;BME280;72099;43.176;76.872;2023-09-19T11:21:41;89601.66;;;23.73;36.58
82476;BME280;72099;43.176;76.872;2023-09-19T11:24:42;89592.09;;;23.56;36.54
82476;BME280;72099;43.176;76.872;2023-09-19T11:31:42;89610.47;;;23.29;37.95
82476;BME280;72099;43.176;76.872;2023-09-19T11:34:46;89617.72;;;23.15;37.95
82476;BME280;72099;43.176;76.872;2023-09-19T11:44:33;89622.25;;;22.53;38.64
82476;BME280;72099;43.176;76.872;2023-09-19T11:47:38;89629.50;;;22.36;39.11
82476;BME280;72099;43.176;76.872;2023-09-19T11:50:39;89619.19;;;22.19;39.35
82476;BME280;72099;43.176;76.872;2023-09-19T11:53:47;89620.28;;;22.01;39.78
82476;BME280;72099;43.176;76.872;2023-09-19T11:56:49;89620.72;;;21.80;40.57
82476;BME280;72099;43.176;76.872;2023-09-19T11:59:51;89624.34;;;21.70;41.26
82476;BME280;72099;43.176;76.872;2023-09-19T12:02:55;89630.66;;;21.60;41.71
82476;BME280;72099;43.176;76.872;2023-09-19T12:06:01;89634.03;;;21.44;41.93
82476;BME280;72099;43.176;76.872;2023-09-19T12:09:14;89632.38;;;21.30;42.25
82476;BME280;72099;43.176;76.872;2023-09-19T12:12:23;89630.41;;;21.11;42.83
82476;BME280;72099;43.176;76.872;2023-09-19T12:15:28;89623.09;;;20.91;43.11
82476;BME280;72099;43.176;76.872;2023-09-19T12:18:34;89641.22;;;20.80;43.60
82476;BME280;72099;43.176;76.872;2023-09-19T12:21:36;89650.03;;;20.77;44.04
82476;BME280;72099;43.176;76.872;2023-09-19T12:24:37;89648.28;;;20.67;44.10
82476;BME280;72099;43.176;76.872;2023-09-19T12:27:47;89644.38;;;20.48;44.80
82476;BME280;72099;43.176;76.872;2023-09-19T12:30:49;89653.63;;;20.40;44.95
82476;BME280;72099;43.176;76.872;2023-09-19T12:33:54;89671.38;;;20.27;45.37
82476;BME280;72099;43.176;76.872;2023-09-19T12:37:15;89662.78;;;20.12;45.63
82476;BME280;72099;43.176;76.872;2023-09-19T12:40:21;89660.38;;;19.91;46.31
82476;BME280;72099;43.176;76.872;2023-09-19T12:43:32;89671.25;;;19.77;47.31
82476;BME280;72099;43.176;76.872;2023-09-19T12:46:34;89685.09;;;19.68;48.18
82476;BME280;72099;43.176;76.872;2023-09-19T12:49:36;89686.75;;;19.51;48.75
82476;BME280;72099;43.176;76.872;2023-09-19T12:52:57;89690.75;;;19.32;49.36
82476;BME280;72099;43.176;76.872;2023-09-19T12:56:00;89685.53;;;19.22;49.94
82476;BME280;72099;43.176;76.872;2023-09-19T12:59:01;89690.59;;;19.09;51.12
82476;BME280;72099;43.176;76.872;2023-09-19T13:02:04;89695.34;;;18.91;52.03
82476;BME280;72099;43.176;76.872;2023-09-19T13:05:07;89703.13;;;18.67;52.90
82476;BME280;72099;43.176;76.872;2023-09-19T13:11:39;89714.00;;;18.28;54.60
82476;BME280;72099;43.176;76.872;2023-09-19T13:14:42;89715.94;;;18.20;55.09
82476;BME280;72099;43.176;76.872;2023-09-19T13:17:47;89731.94;;;18.10;55.23
82476;BME280;72099;43.176;76.872;2023-09-19T13:21:09;89735.06;;;17.97;55.52
82476;BME280;72099;43.176;76.872;2023-09-19T13:24:25;89732.09;;;17.85;55.59
82476;BME280;72099;43.176;76.872;2023-09-19T13:27:30;89737.78;;;17.80;55.38
82476;BME280;72099;43.176;76.872;2023-09-19T13:30:31;89744.66;;;17.70;55.74
82476;BME280;72099;43.176;76.872;2023-09-19T13:33:33;89746.19;;;17.57;56.04
82476;BME280;72099;43.176;76.872;2023-09-19T13:36:35;89743.16;;;17.44;56.28
82476;BME280;72099;43.176;76.872;2023-09-19T13:39:37;89748.91;;;17.35;56.34
82476;BME280;72099;43.176;76.872;2023-09-19T13:42:38;89742.06;;;17.27;55.92
82476;BME280;72099;43.176;76.872;2023-09-19T13:45:40;89737.16;;;17.22;55.73
82476;BME280;72099;43.176;76.872;2023-09-19T13:48:44;89733.34;;;17.16;55.44
82476;BME280;72099;43.176;76.872;2023-09-19T13:51:45;89745.16;;;17.08;55.99
82476;BME280;72099;43.176;76.872;2023-09-19T13:54:47;89741.34;;;16.98;56.29
82476;BME280;72099;43.176;76.872;2023-09-19T13:57:48;89737.94;;;16.91;56.52
82476;BME280;72099;43.176;76.872;2023-09-19T14:00:56;89751.59;;;16.75;56.90
82476;BME280;72099;43.176;76.872;2023-09-19T14:04:10;89763.72;;;16.72;56.67
82476;BME280;72099;43.176;76.872;2023-09-19T14:07:19;89754.25;;;16.68;56.45
82476;BME280;72099;43.176;76.872;2023-09-19T14:10:20;89763.69;;;16.65;56.53
82476;BME280;72099;43.176;76.872;2023-09-19T14:13:21;89769.38;;;16.60;56.87
82476;BME280;72099;43.176;76.872;2023-09-19T14:16:22;89777.72;;;16.59;57.18
82476;BME280;72099;43.176;76.872;2023-09-19T14:19:24;89781.53;;;16.58;56.65
82476;BME280;72099;43.176;76.872;2023-09-19T14:22:25;89781.13;;;16.56;56.35
82476;BME280;72099;43.176;76.872;2023-09-19T14:25:26;89776.56;;;16.52;55.99
82476;BME280;72099;43.176;76.872;2023-09-19T14:28:28;89776.94;;;16.47;56.39
82476;BME280;72099;43.176;76.872;2023-09-19T14:31:30;89777.31;;;16.46;56.13
82476;BME280;72099;43.176;76.872;2023-09-19T14:34:31;89781.50;;;16.43;56.00
82476;BME280;72099;43.176;76.872;2023-09-19T14:37:32;89773.16;;;16.41;55.75
82476;BME280;72099;43.176;76.872;2023-09-19T14:40:33;89778.81;;;16.40;55.99
82476;BME280;72099;43.176;76.872;2023-09-19T14:43:36;89782.22;;;16.40;55.96
82476;BME280;72099;43.176;76.872;2023-09-19T14:46:38;89781.09;;;16.34;56.27
82476;BME280;72099;43.176;76.872;2023-09-19T14:49:39;89792.47;;;16.31;56.40
82476;BME280;72099;43.176;76.872;2023-09-19T14:52:40;89795.50;;;16.30;55.92
82476;BME280;72099;43.176;76.872;2023-09-19T14:55:41;89794.69;;;16.18;55.42
82476;BME280;72099;43.176;76.872;2023-09-19T14:58:44;89824.31;;;16.35;55.27
82476;BME280;72099;43.176;76.872;2023-09-19T15:01:45;89834.19;;;16.38;55.13
82476;BME280;72099;43.176;76.872;2023-09-19T15:04:46;89836.84;;;16.38;55.11
82476;BME280;72099;43.176;76.872;2023-09-19T15:07:47;89828.88;;;16.38;55.06
82476;BME280;72099;43.176;76.872;2023-09-19T15:10:52;89834.16;;;16.34;55.82
82476;BME280;72099;43.176;76.872;2023-09-19T15:13:53;89834.16;;;16.34;55.36
82476;BME280;72099;43.176;76.872;2023-09-19T15:16:54;89831.50;;;16.31;55.25
82476;BME280;72099;43.176;76.872;2023-09-19T15:19:55;89814.03;;;16.26;55.10
82476;BME280;72099;43.176;76.872;2023-09-19T15:22:56;89792.44;;;16.20;55.17
82476;BME280;72099;43.176;76.872;2023-09-19T15:25:57;89785.22;;;16.17;55.30
82476;BME280;72099;43.176;76.872;2023-09-19T15:28:57;89779.91;;;16.17;54.92
82476;BME280;72099;43.176;76.872;2023-09-19T15:31:58;89789.00;;;16.23;54.59
82476;BME280;72099;43.176;76.872;2023-09-19T15:35:02;89784.50;;;16.31;53.93
82476;BME280;72099;43.176;76.872;2023-09-19T15:38:03;89772.00;;;16.39;53.91
82476;BME280;72099;43.176;76.872;2023-09-19T15:41:04;89766.72;;;16.46;52.96
82476;BME280;72099;43.176;76.872;2023-09-19T15:44:15;89758.00;;;16.56;51.97
82476;BME280;72099;43.176;76.872;2023-09-19T15:47:16;89739.41;;;16.63;51.78
82476;BME280;72099;43.176;76.872;2023-09-19T15:50:17;89699.97;;;16.55;52.27
82476;BME280;72099;43.176;76.872;2023-09-19T15:53:18;89701.47;;;16.66;52.23
82476;BME280;72099;43.176;76.872;2023-09-19T15:56:19;89684.03;;;16.65;51.80
82476;BME280;72099;43.176;76.872;2023-09-19T15:59:23;89680.59;;;16.65;51.67
82476;BME280;72099;43.176;76.872;2023-09-19T16:02:24;89674.53;;;16.64;51.54
82476;BME280;72099;43.176;76.872;2023-09-19T16:05:27;89688.25;;;16.70;50.89
82476;BME280;72099;43.176;76.872;2023-09-19T16:08:28;89679.13;;;16.71;50.80
82476;BME280;72099;43.176;76.872;2023-09-19T16:11:31;89690.13;;;16.73;50.99
82476;BME280;72099;43.176;76.872;2023-09-19T16:14:33;89677.63;;;16.70;51.45
82476;BME280;72099;43.176;76.872;2023-09-19T16:17:33;89665.44;;;16.58;51.31
82476;BME280;72099;43.176;76.872;2023-09-19T16:20:34;89673.03;;;16.60;51.14
82476;BME280;72099;43.176;76.872;2023-09-19T16:23:39;89664.69;;;16.58;51.40
82476;BME280;72099;43.176;76.872;2023-09-19T16:26:40;89663.16;;;16.53;51.14
82476;BME280;72099;43.176;76.872;2023-09-19T16:29:40;89680.25;;;16.45;51.32
82476;BME280;72099;43.176;76.872;2023-09-19T16:32:41;89663.19;;;16.28;51.52
82476;BME280;72099;43.176;76.872;2023-09-19T16:35:42;89689.72;;;16.35;51.65
82476;BME280;72099;43.176;76.872;2023-09-19T16:38:44;89694.66;;;16.30;51.52
82476;BME280;72099;43.176;76.872;2023-09-19T16:41:45;89695.75;;;16.25;51.83